Alhambra, California
Current Conditions -  °F | °C
As of 7:45 PM on Friday 24 Oct 2014 (Local Time) from KEMT Reporting Station
Clear Clear  
Wind Chill: 24°   Ceiling: Unl
Heat Index: 24°   Visibility: 10mi
Dew Point:   Wind: 0mph
Humidity: 24%   Direction: NA
Pressure: 29.97"   Gusts: NA
Location:  34.09°N, 118.12°W
Report Text: KEMT 250245Z 00000KT 10SM CLR 24/02 A2997
Loading
Personal Weather Stations






























Interactive Weather Map
Tropical Storm Tracking
New forecast layout! Learn more

10-Day Weather Forecast

Advertisements
Track Severe Weather on mobile